createdAt,value
2023-04-05T00:02:19.302Z,97618.16
2023-04-05T00:04:53.279Z,97618.40
2023-04-05T00:07:23.101Z,97612.77
2023-04-05T00:09:52.526Z,97615.40
2023-04-05T00:12:21.934Z,97613.27
2023-04-05T00:14:53.067Z,97614.10
2023-04-05T00:17:24.016Z,97614.16
2023-04-05T00:19:57.631Z,97612.84
2023-04-05T00:22:32.677Z,97611.70
2023-04-05T00:25:05.260Z,97607.93
2023-04-05T00:27:35.903Z,97610.03
2023-04-05T00:30:07.207Z,97610.59
2023-04-05T00:32:37.430Z,97605.11
2023-04-05T00:35:07.617Z,97605.64
2023-04-05T00:37:36.834Z,97610.05
2023-04-05T00:40:08.095Z,97606.29
2023-04-05T00:42:38.162Z,97606.98
2023-04-05T00:45:09.435Z,97607.66
2023-04-05T00:47:41.603Z,97607.05
2023-04-05T00:50:13.096Z,97604.86
2023-04-05T00:52:44.453Z,97607.36
2023-04-05T00:55:14.813Z,97604.86
2023-04-05T00:57:45.685Z,97604.20
2023-04-05T01:00:16.437Z,97608.19
2023-04-05T01:02:52.878Z,97606.72
2023-04-05T01:05:36.824Z,97610.77
2023-04-05T01:08:15.429Z,97611.13
2023-04-05T01:11:00.955Z,97608.69
2023-04-05T01:13:31.225Z,97604.90
2023-04-05T01:16:01.578Z,97604.23
2023-04-05T01:18:31.490Z,97605.54
2023-04-05T01:21:42.111Z,97605.22
2023-04-05T01:25:03.785Z,97602.48
2023-04-05T01:28:15.093Z,97604.75
2023-04-05T01:31:17.892Z,97604.91
2023-04-05T01:34:00.145Z,97607.57
2023-04-05T01:36:41.269Z,97606.27
2023-04-05T01:39:15.163Z,97608.70
2023-04-05T01:41:44.529Z,97606.90
2023-04-05T01:44:14.323Z,97607.39
2023-04-05T01:46:44.163Z,97606.15
2023-04-05T01:49:15.601Z,97605.73
2023-04-05T01:51:45.740Z,97607.09
2023-04-05T01:54:16.261Z,97601.88
2023-04-05T01:56:47.094Z,97599.96
2023-04-05T01:59:16.880Z,97594.44
2023-04-05T02:01:51.652Z,97593.94
2023-04-05T02:04:21.303Z,97599.18
2023-04-05T02:06:51.304Z,97599.05
2023-04-05T02:09:21.180Z,97600.34
2023-04-05T02:11:51.038Z,97600.85
2023-04-05T02:14:21.686Z,97600.85
2023-04-05T02:16:52.443Z,97598.42
2023-04-05T02:19:23.358Z,97600.70
2023-04-05T02:21:56.743Z,97598.43
2023-04-05T02:24:26.894Z,97598.63
2023-04-05T02:26:56.845Z,97598.14
2023-04-05T02:29:28.014Z,97601.73
2023-04-05T02:32:00.757Z,97596.75
2023-04-05T02:34:31.193Z,97599.69
2023-04-05T02:37:04.498Z,97600.98
2023-04-05T02:39:36.516Z,97603.95
2023-04-05T02:42:06.696Z,97603.05
2023-04-05T02:44:37.596Z,97604.27
2023-04-05T02:47:10.473Z,97606.17
2023-04-05T02:49:39.681Z,97600.27
2023-04-05T02:52:11.202Z,97602.10
2023-04-05T02:54:41.022Z,97599.21
2023-04-05T02:57:12.025Z,97596.45
2023-04-05T02:59:47.441Z,97592.80
2023-04-05T03:02:17.479Z,97586.72
2023-04-05T03:04:47.382Z,97585.77
2023-04-05T03:07:19.242Z,97585.51
2023-04-05T03:09:51.921Z,97580.92
2023-04-05T03:12:22.112Z,97580.45
2023-04-05T03:14:54.974Z,97580.50
2023-04-05T03:17:26.485Z,97581.04
2023-04-05T03:20:09.822Z,97581.43
2023-04-05T03:22:41.474Z,97580.93
2023-04-05T03:25:16.558Z,97579.95
2023-04-05T03:27:49.335Z,97583.98
2023-04-05T03:30:25.433Z,97586.52
2023-04-05T03:33:02.394Z,97585.77
2023-04-05T03:35:40.133Z,97589.11
2023-04-05T03:38:12.329Z,97592.06
2023-04-05T03:40:49.653Z,97589.11
2023-04-05T03:43:20.027Z,97589.73
2023-04-05T03:45:50.047Z,97594.27
2023-04-05T03:48:20.959Z,97597.79
2023-04-05T03:50:52.077Z,97595.10
2023-04-05T03:53:23.880Z,97597.80
2023-04-05T03:55:58.022Z,97600.30
2023-04-05T03:58:44.416Z,97603.03
2023-04-05T04:01:15.982Z,97602.76
2023-04-05T04:03:45.965Z,97605.19
2023-04-05T04:06:19.209Z,97604.81
2023-04-05T04:08:49.098Z,97607.42
2023-04-05T04:11:20.325Z,97609.20
2023-04-05T04:13:52.177Z,97608.32
2023-04-05T04:16:48.209Z,97609.63
2023-04-05T04:19:36.301Z,97602.28
2023-04-05T04:22:39.214Z,97604.25
2023-04-05T04:25:22.999Z,97604.92
2023-04-05T04:28:08.549Z,97606.81
2023-04-05T04:30:49.211Z,97603.23
2023-04-05T04:33:45.482Z,97605.65
2023-04-05T04:36:39.849Z,97610.38
2023-04-05T04:39:50.921Z,97611.58
2023-04-05T04:42:39.479Z,97608.33
2023-04-05T04:45:12.999Z,97606.34
2023-04-05T04:47:50.435Z,97608.66
2023-04-05T04:50:28.982Z,97614.59
2023-04-05T04:53:02.707Z,97610.18
2023-04-05T04:55:34.646Z,97610.46
2023-04-05T04:58:11.466Z,97610.29
2023-04-05T05:00:45.097Z,97612.45
2023-04-05T05:03:17.114Z,97609.77
2023-04-05T05:05:49.470Z,97610.45
2023-04-05T05:08:28.629Z,97615.17
2023-04-05T05:10:58.525Z,97613.64
2023-04-05T05:13:28.345Z,97615.46
2023-04-05T05:16:01.130Z,97619.67
2023-04-05T05:18:30.692Z,97620.46
2023-04-05T05:21:00.780Z,97621.64
2023-04-05T05:23:32.719Z,97616.73
2023-04-05T05:26:06.894Z,97618.92
2023-04-05T05:28:41.055Z,97613.38
2023-04-05T05:31:12.844Z,97614.08
2023-04-05T05:33:46.422Z,97612.48
2023-04-05T05:36:20.423Z,97616.49
2023-04-05T05:38:53.047Z,97619.16
2023-04-05T05:41:22.996Z,97620.00
2023-04-05T05:43:52.932Z,97620.30
2023-04-05T05:46:23.693Z,97619.86
2023-04-05T05:48:53.712Z,97620.42
2023-04-05T05:51:22.925Z,97619.84
2023-04-05T05:53:53.511Z,97620.65
2023-04-05T05:56:23.485Z,97619.13
2023-04-05T05:59:00.904Z,97620.59
2023-04-05T06:01:30.144Z,97621.64
2023-04-05T06:03:59.634Z,97618.71
2023-04-05T06:06:36.080Z,97614.59
2023-04-05T06:09:07.553Z,97614.98
2023-04-05T06:11:46.246Z,97620.73
2023-04-05T06:14:23.199Z,97617.58
2023-04-05T06:16:56.254Z,97620.52
2023-04-05T06:19:26.011Z,97623.09
2023-04-05T06:22:02.693Z,97633.49
2023-04-05T06:24:32.657Z,97633.98
2023-04-05T06:27:03.570Z,97635.00
2023-04-05T06:29:33.094Z,97640.10
2023-04-05T06:32:05.955Z,97640.56
2023-04-05T06:34:35.299Z,97639.08
2023-04-05T06:37:05.222Z,97639.73
2023-04-05T06:39:37.488Z,97641.14
2023-04-05T06:42:06.947Z,97640.52
2023-04-05T06:44:42.413Z,97643.33
2023-04-05T06:47:17.195Z,97641.66
2023-04-05T06:49:47.095Z,97642.44
2023-04-05T06:52:17.114Z,97643.91
2023-04-05T06:54:47.235Z,97645.98
2023-04-05T06:57:19.854Z,97645.34
2023-04-05T06:59:55.669Z,97643.27
2023-04-05T07:02:28.815Z,97647.52
2023-04-05T07:05:06.268Z,97651.40
2023-04-05T07:07:42.866Z,97647.04
2023-04-05T07:10:12.579Z,97642.42
2023-04-05T07:12:43.093Z,97641.29
2023-04-05T07:15:13.856Z,97646.33
2023-04-05T07:17:44.120Z,97645.57
2023-04-05T07:20:16.874Z,97646.27
2023-04-05T07:22:49.357Z,97647.95
2023-04-05T07:25:20.524Z,97650.78
2023-04-05T07:27:50.217Z,97649.95
2023-04-05T07:30:19.821Z,97648.07
2023-04-05T07:32:49.611Z,97648.85
2023-04-05T07:35:25.727Z,97645.79
2023-04-05T07:37:56.886Z,97644.65
2023-04-05T07:40:26.681Z,97643.02
2023-04-05T07:42:57.403Z,97647.65
2023-04-05T07:45:28.006Z,97647.75
2023-04-05T07:47:59.642Z,97649.45
2023-04-05T07:50:32.916Z,97649.39
2023-04-05T07:53:02.090Z,97649.80
2023-04-05T07:55:32.562Z,97648.52
2023-04-05T07:58:02.212Z,97652.39
2023-04-05T08:00:32.156Z,97657.73
2023-04-05T08:03:02.684Z,97656.17
2023-04-05T08:05:33.984Z,97654.16
2023-04-05T08:08:04.972Z,97656.24
2023-04-05T08:10:44.526Z,97653.23
2023-04-05T08:13:14.678Z,97652.91
2023-04-05T08:15:44.136Z,97652.95
2023-04-05T08:18:15.385Z,97657.96
2023-04-05T08:20:45.928Z,97654.84
2023-04-05T08:23:16.916Z,97658.38
2023-04-05T08:25:46.691Z,97660.61
2023-04-05T08:28:17.825Z,97661.20
2023-04-05T08:30:48.908Z,97661.62
2023-04-05T08:33:21.706Z,97659.71
2023-04-05T08:35:51.585Z,97659.70
2023-04-05T08:38:27.242Z,97658.32
2023-04-05T08:41:08.220Z,97660.49
2023-04-05T08:43:50.155Z,97659.05
2023-04-05T08:46:23.088Z,97661.36
2023-04-05T08:48:53.818Z,97660.95
2023-04-05T08:51:27.183Z,97664.06
2023-04-05T08:54:05.505Z,97664.34
2023-04-05T08:56:38.334Z,97668.34
2023-04-05T08:59:13.572Z,97667.18
2023-04-05T09:01:45.792Z,97668.05
2023-04-05T09:04:23.949Z,97671.77
2023-04-05T09:06:58.529Z,97674.23
2023-04-05T09:09:36.588Z,97675.38
2023-04-05T09:12:21.251Z,97682.68
2023-04-05T09:14:53.554Z,97680.11
2023-04-05T09:17:23.688Z,97682.96
2023-04-05T09:19:53.426Z,97683.03
2023-04-05T09:22:24.944Z,97682.08
2023-04-05T09:24:54.852Z,97681.08
2023-04-05T09:27:28.879Z,97679.11
2023-04-05T09:30:01.763Z,97685.23
2023-04-05T09:32:32.243Z,97684.90
2023-04-05T09:35:04.971Z,97684.28
2023-04-05T09:37:37.703Z,97687.26
2023-04-05T09:40:10.940Z,97690.64
2023-04-05T09:42:48.866Z,97690.50
2023-04-05T09:45:19.941Z,97687.95
2023-04-05T09:47:59.804Z,97689.88
2023-04-05T09:50:30.067Z,97687.70
2023-04-05T09:53:19.439Z,97694.77
2023-04-05T09:56:09.268Z,97695.39
2023-04-05T09:58:40.915Z,97699.04
2023-04-05T10:01:16.911Z,97698.86
2023-04-05T10:03:50.986Z,97696.86
2023-04-05T10:06:22.561Z,97698.23
2023-04-05T10:08:54.201Z,97695.06
2023-04-05T10:11:24.179Z,97692.44
2023-04-05T10:13:54.631Z,97700.08
2023-04-05T10:16:30.316Z,97702.17
2023-04-05T10:19:01.483Z,97703.48
2023-04-05T10:21:36.547Z,97702.39
2023-04-05T10:24:50.776Z,97701.04
2023-04-05T10:27:31.232Z,97704.21
2023-04-05T10:30:09.435Z,97704.70
2023-04-05T10:32:57.842Z,97707.07
2023-04-05T10:36:02.142Z,97704.72
2023-04-05T10:39:05.736Z,97703.96
2023-04-05T10:42:01.370Z,97703.27
2023-04-05T10:44:33.616Z,97698.52
2023-04-05T10:47:07.785Z,97698.96
2023-04-05T10:49:44.923Z,97698.17
2023-04-05T10:52:30.418Z,97699.19
2023-04-05T10:55:04.747Z,97697.02
2023-04-05T10:57:40.149Z,97701.09
2023-04-05T11:00:19.636Z,97705.57
2023-04-05T11:03:09.853Z,97703.91
2023-04-05T11:05:40.350Z,97702.06
2023-04-05T11:08:13.576Z,97702.42
2023-04-05T11:10:56.209Z,97707.46
2023-04-05T11:13:50.715Z,97701.04
2023-04-05T11:16:24.000Z,97704.72
2023-04-05T11:18:53.952Z,97706.45
2023-04-05T11:21:26.135Z,97701.86
2023-04-05T11:24:12.334Z,97700.95
2023-04-05T11:26:49.387Z,97698.91
2023-04-05T11:29:41.137Z,97700.09
2023-04-05T11:32:14.603Z,97703.14
2023-04-05T11:34:44.661Z,97703.10
2023-04-05T11:37:16.590Z,97703.40
2023-04-05T11:39:46.341Z,97699.34
2023-04-05T11:42:18.730Z,97698.31
2023-04-05T11:44:49.830Z,97700.94
2023-04-05T11:47:23.846Z,97702.45
2023-04-05T11:49:53.407Z,97701.70
2023-04-05T11:52:23.273Z,97699.17
2023-04-05T11:54:53.774Z,97697.00
2023-04-05T11:57:25.477Z,97697.34
2023-04-05T11:59:57.314Z,97701.11
2023-04-05T12:02:27.304Z,97698.70
2023-04-05T12:04:58.665Z,97698.63
2023-04-05T12:07:33.076Z,97695.54
2023-04-05T12:10:16.451Z,97696.01
2023-04-05T12:12:48.388Z,97704.34
2023-04-05T12:15:19.483Z,97701.99
2023-04-05T12:17:51.779Z,97698.19
2023-04-05T12:20:26.538Z,97694.58
2023-04-05T12:22:57.854Z,97691.88
2023-04-05T12:25:27.640Z,97695.26
2023-04-05T12:27:59.417Z,97698.05
2023-04-05T12:30:37.681Z,97699.48
2023-04-05T12:33:12.446Z,97694.23
2023-04-05T12:35:42.221Z,97698.02
2023-04-05T12:38:18.101Z,97692.98
2023-04-05T12:40:56.003Z,97688.13
2023-04-05T12:43:27.318Z,97686.55
2023-04-05T12:45:58.278Z,97686.66
2023-04-05T12:48:29.740Z,97685.83
2023-04-05T12:51:16.906Z,97685.45
2023-04-05T12:53:48.746Z,97685.89
2023-04-05T12:56:18.223Z,97683.39
2023-04-05T12:58:52.876Z,97683.52
2023-04-05T13:01:22.375Z,97677.39
2023-04-05T13:03:58.910Z,97678.48
2023-04-05T13:06:35.813Z,97676.84
2023-04-05T13:09:05.317Z,97670.71
2023-04-05T13:11:35.225Z,97672.20
2023-04-05T13:14:04.645Z,97671.83
2023-04-05T13:16:36.976Z,97675.25
2023-04-05T13:19:06.910Z,97671.89
2023-04-05T13:21:37.568Z,97671.33
2023-04-05T13:24:07.551Z,97668.11
2023-04-05T13:26:37.949Z,97665.82
2023-04-05T13:29:08.798Z,97670.87
2023-04-05T13:31:41.457Z,97672.04
2023-04-05T13:34:11.784Z,97668.52
2023-04-05T13:36:41.430Z,97670.38
2023-04-05T13:39:11.919Z,97668.65
2023-04-05T13:41:42.773Z,97667.56
2023-04-05T13:44:12.163Z,97665.92
2023-04-05T13:46:41.728Z,97662.63
2023-04-05T13:49:11.655Z,97658.52
2023-04-05T13:51:42.247Z,97659.83
2023-04-05T13:54:12.184Z,97655.77
2023-04-05T13:56:42.855Z,97659.54
2023-04-05T13:59:17.669Z,97663.17
2023-04-05T14:01:49.464Z,97662.67
2023-04-05T14:04:19.874Z,97656.67
2023-04-05T14:06:49.485Z,97660.35
2023-04-05T14:09:19.018Z,97660.65
2023-04-05T14:11:49.634Z,97658.52
2023-04-05T14:14:19.532Z,97658.27
2023-04-05T14:16:49.977Z,97656.68
2023-04-05T14:19:21.033Z,97657.42
2023-04-05T14:21:52.049Z,97658.83
2023-04-05T14:24:21.974Z,97654.75
2023-04-05T14:26:51.608Z,97657.11
2023-04-05T14:29:21.154Z,97656.15
2023-04-05T14:31:50.997Z,97659.83
2023-04-05T14:34:20.746Z,97654.96
2023-04-05T14:36:50.264Z,97659.41
2023-04-05T14:39:22.034Z,97657.20
2023-04-05T14:41:53.358Z,97662.52
2023-04-05T14:44:25.050Z,97658.23
2023-04-05T14:46:54.479Z,97655.64
2023-04-05T14:49:24.266Z,97657.00
2023-04-05T14:51:54.485Z,97654.21
2023-04-05T14:54:24.110Z,97656.55
2023-04-05T14:56:53.864Z,97655.48
2023-04-05T14:59:23.267Z,97662.80
2023-04-05T15:01:52.814Z,97660.59
2023-04-05T15:04:24.384Z,97660.05
2023-04-05T15:06:53.751Z,97661.59
2023-04-05T15:09:23.039Z,97663.06
2023-04-05T15:11:54.417Z,97664.61
2023-04-05T15:14:31.827Z,97664.60
2023-04-05T15:17:02.397Z,97669.45
2023-04-05T15:19:32.113Z,97671.84
2023-04-05T15:22:01.918Z,97667.98
2023-04-05T15:24:31.451Z,97673.96
2023-04-05T15:27:04.118Z,97670.82
2023-04-05T15:29:34.750Z,97669.74
2023-04-05T15:32:05.977Z,97668.75
2023-04-05T15:34:35.828Z,97668.77
2023-04-05T15:37:05.449Z,97671.44
2023-04-05T15:39:35.565Z,97665.11
2023-04-05T15:42:08.681Z,97669.80
2023-04-05T15:44:38.457Z,97667.13
2023-04-05T15:47:07.760Z,97669.86
2023-04-05T15:49:37.399Z,97671.93
2023-04-05T15:52:08.487Z,97671.69
2023-04-05T15:54:38.178Z,97668.30
2023-04-05T15:57:08.474Z,97670.84
2023-04-05T15:59:38.078Z,97671.13
2023-04-05T16:02:08.088Z,97673.35
2023-04-05T16:04:39.837Z,97670.13
2023-04-05T16:07:10.434Z,97669.55
2023-04-05T16:09:40.006Z,97675.05
2023-04-05T16:12:11.496Z,97674.20
2023-04-05T16:14:41.557Z,97676.09
2023-04-05T16:17:11.305Z,97671.78
2023-04-05T16:19:40.471Z,97671.42
2023-04-05T16:22:10.210Z,97675.47
2023-04-05T16:24:40.733Z,97674.77
2023-04-05T16:27:10.341Z,97675.70
2023-04-05T16:29:40.211Z,97673.61
2023-04-05T16:32:11.002Z,97678.34
2023-04-05T16:34:40.738Z,97678.73
2023-04-05T16:37:10.065Z,97678.48
2023-04-05T16:39:40.626Z,97681.34
2023-04-05T16:42:13.165Z,97685.77
2023-04-05T16:44:42.678Z,97689.17
2023-04-05T16:47:13.060Z,97690.15
2023-04-05T16:49:42.196Z,97691.35
2023-04-05T16:52:12.519Z,97688.02
2023-04-05T16:54:41.797Z,97691.59
2023-04-05T16:57:11.814Z,97692.46
2023-04-05T16:59:41.893Z,97689.30
2023-04-05T17:02:11.341Z,97691.89
2023-04-05T17:04:40.959Z,97690.06
2023-04-05T17:07:10.330Z,97689.95
2023-04-05T17:09:40.326Z,97689.61
2023-04-05T17:12:12.242Z,97685.31
2023-04-05T17:14:41.883Z,97686.60
2023-04-05T17:17:12.503Z,97688.59
2023-04-05T17:19:42.724Z,97687.02
2023-04-05T17:22:14.296Z,97687.77
2023-04-05T17:24:46.998Z,97691.38
2023-04-05T17:27:16.508Z,97692.21
2023-04-05T17:29:47.185Z,97688.83
2023-04-05T17:32:17.658Z,97689.75
2023-04-05T17:34:47.158Z,97687.98
2023-04-05T17:37:17.181Z,97687.19
2023-04-05T17:39:47.211Z,97689.04
2023-04-05T17:42:19.048Z,97687.97
2023-04-05T17:44:48.748Z,97691.52
2023-04-05T17:47:18.943Z,97692.83
2023-04-05T17:49:49.727Z,97692.14
2023-04-05T17:52:22.932Z,97692.46
2023-04-05T17:54:52.705Z,97694.41
2023-04-05T17:57:24.990Z,97691.63
2023-04-05T17:59:55.207Z,97695.05
2023-04-05T18:02:25.410Z,97695.84
2023-04-05T18:04:56.078Z,97696.94
2023-04-05T18:07:27.620Z,97695.67
2023-04-05T18:09:56.826Z,97696.28
2023-04-05T18:12:29.214Z,97695.48
2023-04-05T18:14:58.788Z,97699.50
2023-04-05T18:17:28.549Z,97700.23
2023-04-05T18:19:58.810Z,97696.60
2023-04-05T18:22:33.288Z,97700.91
2023-04-05T18:25:04.509Z,97700.38
2023-04-05T18:27:34.033Z,97698.05
2023-04-05T18:30:03.933Z,97703.88
2023-04-05T18:32:33.000Z,97696.24
2023-04-05T18:35:02.527Z,97696.90
2023-04-05T18:37:32.499Z,97693.55
2023-04-05T18:40:04.193Z,97695.60
2023-04-05T18:42:34.315Z,97697.34
2023-04-05T18:45:04.807Z,97691.25
2023-04-05T18:47:36.322Z,97691.64
2023-04-05T18:50:10.347Z,97691.48
2023-04-05T18:52:40.654Z,97690.08
2023-04-05T18:55:10.821Z,97686.14
2023-04-05T18:57:40.805Z,97683.04
2023-04-05T19:00:11.437Z,97685.69
2023-04-05T19:02:41.862Z,97680.96
2023-04-05T19:05:12.518Z,97681.98
2023-04-05T19:07:42.385Z,97681.77
2023-04-05T19:10:12.782Z,97686.89
2023-04-05T19:12:43.665Z,97679.68
2023-04-05T19:15:13.638Z,97680.43
2023-04-05T19:17:43.641Z,97677.84
2023-04-05T19:20:15.278Z,97679.14
2023-04-05T19:22:45.252Z,97674.73
2023-04-05T19:25:15.825Z,97677.20
2023-04-05T19:27:45.838Z,97673.75
2023-04-05T19:30:15.812Z,97671.98
2023-04-05T19:32:45.543Z,97669.36
2023-04-05T19:35:15.376Z,97666.13
2023-04-05T19:37:46.503Z,97665.91
2023-04-05T19:40:16.451Z,97665.70
2023-04-05T19:42:48.024Z,97656.30
2023-04-05T19:45:27.060Z,97657.57
2023-04-05T19:47:58.476Z,97660.11
2023-04-05T19:50:44.303Z,97664.02
2023-04-05T19:53:33.002Z,97659.62
2023-04-05T19:56:03.550Z,97658.17
2023-04-05T19:58:33.195Z,97658.77
2023-04-05T20:01:03.341Z,97652.66
2023-04-05T20:03:41.799Z,97655.15
2023-04-05T20:06:13.232Z,97657.52
2023-04-05T20:08:48.551Z,97651.02
2023-04-05T20:11:21.737Z,97651.13
2023-04-05T20:13:57.537Z,97647.08
2023-04-05T20:16:29.567Z,97642.57
2023-04-05T20:19:03.321Z,97643.13
2023-04-05T20:21:33.355Z,97642.05
2023-04-05T20:24:03.770Z,97642.69
2023-04-05T20:26:34.370Z,97636.50
2023-04-05T20:29:10.020Z,97641.83
2023-04-05T20:31:40.358Z,97643.72
2023-04-05T20:34:16.008Z,97639.34
2023-04-05T20:36:52.831Z,97641.34
2023-04-05T20:39:24.352Z,97643.55
2023-04-05T20:41:54.002Z,97641.19
2023-04-05T20:44:25.598Z,97643.55
2023-04-05T20:46:58.532Z,97639.30
2023-04-05T20:49:28.531Z,97634.30
2023-04-05T20:51:58.272Z,97635.27
2023-04-05T20:54:27.749Z,97633.70
2023-04-05T20:56:58.889Z,97635.22
2023-04-05T20:59:28.823Z,97631.66
2023-04-05T21:01:58.410Z,97629.60
2023-04-05T21:04:29.989Z,97631.05
2023-04-05T21:06:59.877Z,97628.64
2023-04-05T21:09:30.610Z,97632.95
2023-04-05T21:12:00.235Z,97627.45
2023-04-05T21:14:30.044Z,97630.35
2023-04-05T21:17:00.946Z,97629.38
2023-04-05T21:19:30.026Z,97626.52
2023-04-05T21:21:59.747Z,97625.17
2023-04-05T21:24:29.166Z,97624.70
2023-04-05T21:26:58.976Z,97622.93
2023-04-05T21:29:28.716Z,97618.73
2023-04-05T21:31:57.992Z,97611.14
2023-04-05T21:34:31.218Z,97610.44
2023-04-05T21:37:01.109Z,97613.30
2023-04-05T21:39:31.113Z,97609.91
2023-04-05T21:42:01.154Z,97606.85
2023-04-05T21:44:30.737Z,97607.67
2023-04-05T21:47:02.835Z,97603.64
2023-04-05T21:49:32.545Z,97600.77
2023-04-05T21:52:01.747Z,97604.54
2023-04-05T21:54:31.486Z,97602.66
2023-04-05T21:57:01.370Z,97604.72
2023-04-05T21:59:31.062Z,97606.71
2023-04-05T22:02:01.799Z,97603.16
2023-04-05T22:04:31.733Z,97598.04
2023-04-05T22:07:01.394Z,97599.39
2023-04-05T22:09:32.334Z,97598.48
2023-04-05T22:12:02.564Z,97597.63
2023-04-05T22:14:33.992Z,97596.02
2023-04-05T22:17:04.388Z,97594.30
2023-04-05T22:19:35.085Z,97594.41
2023-04-05T22:22:04.864Z,97591.89
2023-04-05T22:24:35.844Z,97588.51
2023-04-05T22:27:06.478Z,97586.19
2023-04-05T22:29:39.546Z,97582.91
2023-04-05T22:32:09.821Z,97580.50
2023-04-05T22:34:39.790Z,97579.06
2023-04-05T22:37:09.369Z,97584.27
2023-04-05T22:39:39.645Z,97584.50
2023-04-05T22:42:09.106Z,97581.05
2023-04-05T22:44:40.457Z,97579.23
2023-04-05T22:47:10.749Z,97583.27
2023-04-05T22:49:41.660Z,97579.02
2023-04-05T22:52:11.577Z,97578.60
2023-04-05T22:54:42.217Z,97579.14
2023-04-05T22:57:11.765Z,97582.63
2023-04-05T22:59:42.329Z,97581.56
2023-04-05T23:02:12.895Z,97581.98
2023-04-05T23:04:42.236Z,97576.89
2023-04-05T23:07:12.718Z,97579.31
2023-04-05T23:09:42.625Z,97577.27
2023-04-05T23:12:11.991Z,97576.56
2023-04-05T23:14:42.812Z,97578.56
2023-04-05T23:17:12.378Z,97572.02
2023-04-05T23:19:41.820Z,97573.40
2023-04-05T23:22:11.758Z,97567.77
2023-04-05T23:24:41.815Z,97567.81
2023-04-05T23:27:11.323Z,97564.86
2023-04-05T23:29:42.858Z,97566.14
2023-04-05T23:32:14.182Z,97562.86
2023-04-05T23:34:43.842Z,97567.50
2023-04-05T23:37:14.991Z,97567.05
2023-04-05T23:39:44.459Z,97568.40
2023-04-05T23:42:14.444Z,97565.42
2023-04-05T23:44:43.978Z,97568.11
2023-04-05T23:47:14.054Z,97567.91
2023-04-05T23:49:45.181Z,97570.15
2023-04-05T23:52:14.613Z,97566.71
2023-04-05T23:54:45.096Z,97566.67
2023-04-05T23:57:15.108Z,97566.27
2023-04-05T23:59:45.011Z,97561.81
